sensor_id;sensor_type;location;lat;lon;timestamp;P1;durP1;ratioP1;P2;durP2;ratioP2
11514;SDS011;5814;41.936;25.556;2023-02-28T00:00:10;33.73;;;14.77;;
11514;SDS011;5814;41.936;25.556;2023-02-28T00:02:37;37.00;;;14.33;;
11514;SDS011;5814;41.936;25.556;2023-02-28T00:05:05;28.47;;;14.00;;
11514;SDS011;5814;41.936;25.556;2023-02-28T00:07:32;34.97;;;13.87;;
11514;SDS011;5814;41.936;25.556;2023-02-28T00:09:59;29.77;;;14.20;;
11514;SDS011;5814;41.936;25.556;2023-02-28T00:12:27;32.03;;;13.60;;
11514;SDS011;5814;41.936;25.556;2023-02-28T00:14:54;28.83;;;12.47;;
11514;SDS011;5814;41.936;25.556;2023-02-28T00:17:21;24.10;;;12.00;;
11514;SDS011;5814;41.936;25.556;2023-02-28T00:19:48;28.03;;;12.00;;
11514;SDS011;5814;41.936;25.556;2023-02-28T00:22:16;26.20;;;13.30;;
11514;SDS011;5814;41.936;25.556;2023-02-28T00:24:43;34.63;;;14.07;;
11514;SDS011;5814;41.936;25.556;2023-02-28T00:27:10;28.03;;;12.90;;
11514;SDS011;5814;41.936;25.556;2023-02-28T00:29:37;32.43;;;13.60;;
11514;SDS011;5814;41.936;25.556;2023-02-28T00:32:04;25.13;;;13.47;;
11514;SDS011;5814;41.936;25.556;2023-02-28T00:34:31;27.17;;;12.67;;
11514;SDS011;5814;41.936;25.556;2023-02-28T00:36:59;23.00;;;12.47;;
11514;SDS011;5814;41.936;25.556;2023-02-28T00:39:26;27.13;;;13.40;;
11514;SDS011;5814;41.936;25.556;2023-02-28T00:41:53;26.33;;;14.20;;
11514;SDS011;5814;41.936;25.556;2023-02-28T00:44:20;27.57;;;15.90;;
11514;SDS011;5814;41.936;25.556;2023-02-28T00:46:47;30.47;;;19.23;;
11514;SDS011;5814;41.936;25.556;2023-02-28T00:49:15;34.20;;;18.60;;
11514;SDS011;5814;41.936;25.556;2023-02-28T00:51:42;30.93;;;18.27;;
11514;SDS011;5814;41.936;25.556;2023-02-28T00:54:09;33.23;;;18.07;;
11514;SDS011;5814;41.936;25.556;2023-02-28T00:56:36;37.23;;;19.13;;
11514;SDS011;5814;41.936;25.556;2023-02-28T00:59:03;27.70;;;18.20;;
11514;SDS011;5814;41.936;25.556;2023-02-28T01:01:31;30.73;;;18.90;;
11514;SDS011;5814;41.936;25.556;2023-02-28T01:03:58;31.73;;;18.97;;
11514;SDS011;5814;41.936;25.556;2023-02-28T01:06:25;29.33;;;19.30;;
11514;SDS011;5814;41.936;25.556;2023-02-28T01:08:52;29.27;;;19.87;;
11514;SDS011;5814;41.936;25.556;2023-02-28T01:11:19;29.70;;;20.50;;
11514;SDS011;5814;41.936;25.556;2023-02-28T01:13:47;28.80;;;19.17;;
11514;SDS011;5814;41.936;25.556;2023-02-28T01:16:14;29.50;;;20.43;;
11514;SDS011;5814;41.936;25.556;2023-02-28T01:18:41;27.50;;;19.10;;
11514;SDS011;5814;41.936;25.556;2023-02-28T01:21:10;28.40;;;20.60;;
11514;SDS011;5814;41.936;25.556;2023-02-28T01:23:35;30.90;;;20.90;;
11514;SDS011;5814;41.936;25.556;2023-02-28T01:26:04;31.80;;;20.80;;
11514;SDS011;5814;41.936;25.556;2023-02-28T01:28:32;32.73;;;21.63;;
11514;SDS011;5814;41.936;25.556;2023-02-28T01:31:00;25.73;;;20.77;;
11514;SDS011;5814;41.936;25.556;2023-02-28T01:33:27;30.47;;;19.50;;
11514;SDS011;5814;41.936;25.556;2023-02-28T01:35:58;29.63;;;20.47;;
11514;SDS011;5814;41.936;25.556;2023-02-28T01:38:25;29.90;;;20.37;;
11514;SDS011;5814;41.936;25.556;2023-02-28T01:40:52;29.80;;;22.57;;
11514;SDS011;5814;41.936;25.556;2023-02-28T01:43:23;31.93;;;21.43;;
11514;SDS011;5814;41.936;25.556;2023-02-28T01:45:50;29.13;;;21.00;;
11514;SDS011;5814;41.936;25.556;2023-02-28T01:48:16;24.60;;;19.07;;
11514;SDS011;5814;41.936;25.556;2023-02-28T01:50:44;30.47;;;20.13;;
11514;SDS011;5814;41.936;25.556;2023-02-28T01:53:13;32.83;;;21.30;;
11514;SDS011;5814;41.936;25.556;2023-02-28T01:55:38;30.80;;;21.20;;
11514;SDS011;5814;41.936;25.556;2023-02-28T01:58:05;28.80;;;21.00;;
11514;SDS011;5814;41.936;25.556;2023-02-28T02:00:32;22.87;;;19.10;;
11514;SDS011;5814;41.936;25.556;2023-02-28T02:03:00;19.60;;;17.27;;
11514;SDS011;5814;41.936;25.556;2023-02-28T02:05:28;21.97;;;18.43;;
11514;SDS011;5814;41.936;25.556;2023-02-28T02:07:55;24.07;;;19.37;;
11514;SDS011;5814;41.936;25.556;2023-02-28T02:10:24;27.00;;;21.60;;
11514;SDS011;5814;41.936;25.556;2023-02-28T02:12:55;26.93;;;22.70;;
11514;SDS011;5814;41.936;25.556;2023-02-28T02:15:28;32.80;;;23.83;;
11514;SDS011;5814;41.936;25.556;2023-02-28T02:18:04;30.07;;;21.33;;
11514;SDS011;5814;41.936;25.556;2023-02-28T02:20:53;29.17;;;20.63;;
11514;SDS011;5814;41.936;25.556;2023-02-28T02:25:55;22.63;;;18.50;;
11514;SDS011;5814;41.936;25.556;2023-02-28T02:31:37;25.23;;;19.30;;
11514;SDS011;5814;41.936;25.556;2023-02-28T02:37:13;18.20;;;16.37;;
11514;SDS011;5814;41.936;25.556;2023-02-28T02:39:45;17.80;;;15.90;;
11514;SDS011;5814;41.936;25.556;2023-02-28T02:42:16;20.80;;;15.73;;
11514;SDS011;5814;41.936;25.556;2023-02-28T02:44:47;20.43;;;16.00;;
11514;SDS011;5814;41.936;25.556;2023-02-28T02:47:15;20.33;;;15.77;;
11514;SDS011;5814;41.936;25.556;2023-02-28T02:49:43;18.07;;;14.20;;
11514;SDS011;5814;41.936;25.556;2023-02-28T02:52:10;14.47;;;13.13;;
11514;SDS011;5814;41.936;25.556;2023-02-28T02:54:38;13.80;;;12.40;;
11514;SDS011;5814;41.936;25.556;2023-02-28T02:57:07;13.20;;;11.93;;
11514;SDS011;5814;41.936;25.556;2023-02-28T02:59:32;16.17;;;12.00;;
11514;SDS011;5814;41.936;25.556;2023-02-28T03:02:00;15.53;;;12.07;;
11514;SDS011;5814;41.936;25.556;2023-02-28T03:04:27;12.40;;;11.10;;
11514;SDS011;5814;41.936;25.556;2023-02-28T03:06:54;13.83;;;11.37;;
11514;SDS011;5814;41.936;25.556;2023-02-28T03:09:21;13.43;;;11.20;;
11514;SDS011;5814;41.936;25.556;2023-02-28T03:11:48;12.47;;;11.17;;
11514;SDS011;5814;41.936;25.556;2023-02-28T03:14:25;12.20;;;11.07;;
11514;SDS011;5814;41.936;25.556;2023-02-28T03:17:00;11.93;;;11.03;;
11514;SDS011;5814;41.936;25.556;2023-02-28T03:19:34;11.63;;;10.63;;
11514;SDS011;5814;41.936;25.556;2023-02-28T03:22:14;11.87;;;10.63;;
11514;SDS011;5814;41.936;25.556;2023-02-28T03:25:51;11.47;;;10.33;;
11514;SDS011;5814;41.936;25.556;2023-02-28T03:27:39;12.17;;;10.57;;
11514;SDS011;5814;41.936;25.556;2023-02-28T03:30:06;12.13;;;10.80;;
11514;SDS011;5814;41.936;25.556;2023-02-28T03:32:35;10.60;;;9.70;;
11514;SDS011;5814;41.936;25.556;2023-02-28T03:35:02;10.77;;;9.67;;
11514;SDS011;5814;41.936;25.556;2023-02-28T03:37:27;13.73;;;10.40;;
11514;SDS011;5814;41.936;25.556;2023-02-28T03:39:58;10.90;;;9.90;;
11514;SDS011;5814;41.936;25.556;2023-02-28T03:42:24;11.17;;;9.70;;
11514;SDS011;5814;41.936;25.556;2023-02-28T03:44:53;11.33;;;9.30;;
11514;SDS011;5814;41.936;25.556;2023-02-28T03:47:25;11.20;;;9.63;;
11514;SDS011;5814;41.936;25.556;2023-02-28T03:49:54;10.60;;;9.63;;
11514;SDS011;5814;41.936;25.556;2023-02-28T03:52:22;11.17;;;9.90;;
11514;SDS011;5814;41.936;25.556;2023-02-28T03:54:50;11.77;;;9.50;;
11514;SDS011;5814;41.936;25.556;2023-02-28T03:57:33;14.33;;;9.87;;
11514;SDS011;5814;41.936;25.556;2023-02-28T04:00:06;9.97;;;9.17;;
11514;SDS011;5814;41.936;25.556;2023-02-28T04:02:33;10.03;;;9.03;;
11514;SDS011;5814;41.936;25.556;2023-02-28T04:05:00;10.37;;;9.40;;
11514;SDS011;5814;41.936;25.556;2023-02-28T04:07:29;27.57;;;22.90;;
11514;SDS011;5814;41.936;25.556;2023-02-28T04:09:55;20.47;;;16.60;;
11514;SDS011;5814;41.936;25.556;2023-02-28T04:12:23;21.93;;;17.70;;
11514;SDS011;5814;41.936;25.556;2023-02-28T04:14:50;10.10;;;9.10;;
11514;SDS011;5814;41.936;25.556;2023-02-28T04:17:17;17.73;;;15.90;;
11514;SDS011;5814;41.936;25.556;2023-02-28T04:19:44;10.93;;;9.90;;
11514;SDS011;5814;41.936;25.556;2023-02-28T04:22:11;15.47;;;12.77;;
11514;SDS011;5814;41.936;25.556;2023-02-28T04:24:38;16.03;;;12.03;;
11514;SDS011;5814;41.936;25.556;2023-02-28T04:27:06;17.77;;;14.50;;
11514;SDS011;5814;41.936;25.556;2023-02-28T04:29:33;24.00;;;19.33;;
11514;SDS011;5814;41.936;25.556;2023-02-28T04:32:00;15.97;;;13.57;;
11514;SDS011;5814;41.936;25.556;2023-02-28T04:34:28;15.13;;;13.50;;
11514;SDS011;5814;41.936;25.556;2023-02-28T04:36:55;15.10;;;13.47;;
11514;SDS011;5814;41.936;25.556;2023-02-28T04:39:22;16.10;;;13.97;;
11514;SDS011;5814;41.936;25.556;2023-02-28T04:41:49;15.97;;;14.03;;
11514;SDS011;5814;41.936;25.556;2023-02-28T04:44:16;16.03;;;14.33;;
11514;SDS011;5814;41.936;25.556;2023-02-28T04:46:44;17.70;;;14.00;;
11514;SDS011;5814;41.936;25.556;2023-02-28T04:49:11;19.70;;;13.27;;
11514;SDS011;5814;41.936;25.556;2023-02-28T04:51:38;20.03;;;13.27;;
11514;SDS011;5814;41.936;25.556;2023-02-28T04:54:05;19.93;;;16.87;;
11514;SDS011;5814;41.936;25.556;2023-02-28T04:56:32;19.80;;;13.13;;
11514;SDS011;5814;41.936;25.556;2023-02-28T04:58:59;15.57;;;13.37;;
11514;SDS011;5814;41.936;25.556;2023-02-28T05:01:28;13.27;;;11.93;;
11514;SDS011;5814;41.936;25.556;2023-02-28T05:03:55;13.93;;;12.40;;
11514;SDS011;5814;41.936;25.556;2023-02-28T05:06:22;14.70;;;13.20;;
11514;SDS011;5814;41.936;25.556;2023-02-28T05:08:50;15.43;;;14.03;;
11514;SDS011;5814;41.936;25.556;2023-02-28T05:11:19;17.40;;;15.60;;
11514;SDS011;5814;41.936;25.556;2023-02-28T05:13:45;18.60;;;16.70;;
11514;SDS011;5814;41.936;25.556;2023-02-28T05:16:12;18.07;;;15.43;;
11514;SDS011;5814;41.936;25.556;2023-02-28T05:18:39;16.67;;;15.17;;
11514;SDS011;5814;41.936;25.556;2023-02-28T05:21:15;16.47;;;14.70;;
11514;SDS011;5814;41.936;25.556;2023-02-28T05:23:49;16.30;;;14.77;;
11514;SDS011;5814;41.936;25.556;2023-02-28T05:26:16;15.77;;;14.00;;
11514;SDS011;5814;41.936;25.556;2023-02-28T05:28:43;14.47;;;13.43;;
11514;SDS011;5814;41.936;25.556;2023-02-28T05:31:10;15.53;;;13.93;;
11514;SDS011;5814;41.936;25.556;2023-02-28T05:33:37;15.63;;;14.30;;
11514;SDS011;5814;41.936;25.556;2023-02-28T05:36:05;19.73;;;15.27;;
11514;SDS011;5814;41.936;25.556;2023-02-28T05:38:33;16.70;;;15.10;;
11514;SDS011;5814;41.936;25.556;2023-02-28T05:41:04;16.43;;;14.00;;
11514;SDS011;5814;41.936;25.556;2023-02-28T05:43:27;23.80;;;21.63;;
11514;SDS011;5814;41.936;25.556;2023-02-28T05:45:54;16.63;;;14.93;;
11514;SDS011;5814;41.936;25.556;2023-02-28T05:48:22;16.33;;;14.80;;
11514;SDS011;5814;41.936;25.556;2023-02-28T05:50:49;15.03;;;13.73;;
11514;SDS011;5814;41.936;25.556;2023-02-28T05:53:16;18.17;;;16.27;;
11514;SDS011;5814;41.936;25.556;2023-02-28T05:55:43;17.43;;;15.67;;
11514;SDS011;5814;41.936;25.556;2023-02-28T05:58:10;16.17;;;14.73;;
11514;SDS011;5814;41.936;25.556;2023-02-28T06:00:38;17.90;;;16.10;;
11514;SDS011;5814;41.936;25.556;2023-02-28T06:03:05;17.67;;;16.17;;
11514;SDS011;5814;41.936;25.556;2023-02-28T06:05:32;18.20;;;16.60;;
11514;SDS011;5814;41.936;25.556;2023-02-28T06:07:59;17.10;;;15.40;;
11514;SDS011;5814;41.936;25.556;2023-02-28T06:10:26;18.00;;;16.30;;
11514;SDS011;5814;41.936;25.556;2023-02-28T06:12:53;17.70;;;16.00;;
11514;SDS011;5814;41.936;25.556;2023-02-28T06:15:21;18.63;;;16.57;;
11514;SDS011;5814;41.936;25.556;2023-02-28T06:17:48;17.90;;;16.50;;
11514;SDS011;5814;41.936;25.556;2023-02-28T06:20:15;19.83;;;17.93;;
11514;SDS011;5814;41.936;25.556;2023-02-28T06:22:43;19.77;;;17.67;;
11514;SDS011;5814;41.936;25.556;2023-02-28T06:25:10;19.97;;;18.13;;
11514;SDS011;5814;41.936;25.556;2023-02-28T06:27:37;21.47;;;19.63;;
11514;SDS011;5814;41.936;25.556;2023-02-28T06:30:05;21.10;;;19.33;;
11514;SDS011;5814;41.936;25.556;2023-02-28T06:32:33;21.03;;;18.97;;
11514;SDS011;5814;41.936;25.556;2023-02-28T06:35:00;22.97;;;20.77;;
11514;SDS011;5814;41.936;25.556;2023-02-28T06:37:27;23.73;;;21.20;;
11514;SDS011;5814;41.936;25.556;2023-02-28T06:39:54;22.73;;;20.63;;
11514;SDS011;5814;41.936;25.556;2023-02-28T06:42:23;24.33;;;22.13;;
11514;SDS011;5814;41.936;25.556;2023-02-28T06:44:50;24.23;;;22.10;;
11514;SDS011;5814;41.936;25.556;2023-02-28T06:47:17;24.10;;;22.13;;
11514;SDS011;5814;41.936;25.556;2023-02-28T06:49:44;27.70;;;25.10;;
11514;SDS011;5814;41.936;25.556;2023-02-28T06:52:12;26.10;;;23.60;;
11514;SDS011;5814;41.936;25.556;2023-02-28T06:54:39;27.67;;;25.00;;
11514;SDS011;5814;41.936;25.556;2023-02-28T06:57:06;26.87;;;24.27;;
11514;SDS011;5814;41.936;25.556;2023-02-28T06:59:33;29.17;;;26.57;;
11514;SDS011;5814;41.936;25.556;2023-02-28T07:02:01;28.73;;;25.97;;
11514;SDS011;5814;41.936;25.556;2023-02-28T07:04:28;30.40;;;27.40;;
11514;SDS011;5814;41.936;25.556;2023-02-28T07:06:55;34.50;;;31.20;;
11514;SDS011;5814;41.936;25.556;2023-02-28T07:09:22;36.17;;;32.70;;
11514;SDS011;5814;41.936;25.556;2023-02-28T07:11:49;36.63;;;30.10;;
11514;SDS011;5814;41.936;25.556;2023-02-28T07:14:16;27.73;;;25.10;;
11514;SDS011;5814;41.936;25.556;2023-02-28T07:16:43;30.33;;;27.27;;
11514;SDS011;5814;41.936;25.556;2023-02-28T07:19:11;31.80;;;28.47;;
11514;SDS011;5814;41.936;25.556;2023-02-28T07:21:38;35.83;;;32.00;;
11514;SDS011;5814;41.936;25.556;2023-02-28T07:24:05;32.43;;;28.93;;
11514;SDS011;5814;41.936;25.556;2023-02-28T07:26:33;33.00;;;29.77;;
11514;SDS011;5814;41.936;25.556;2023-02-28T07:29:01;38.27;;;34.47;;
11514;SDS011;5814;41.936;25.556;2023-02-28T07:31:28;38.17;;;34.37;;
11514;SDS011;5814;41.936;25.556;2023-02-28T07:33:55;38.03;;;34.47;;
11514;SDS011;5814;41.936;25.556;2023-02-28T07:36:22;37.20;;;33.70;;
11514;SDS011;5814;41.936;25.556;2023-02-28T07:38:49;39.87;;;35.20;;
11514;SDS011;5814;41.936;25.556;2023-02-28T07:41:17;37.83;;;33.43;;
11514;SDS011;5814;41.936;25.556;2023-02-28T07:43:44;34.97;;;31.30;;
11514;SDS011;5814;41.936;25.556;2023-02-28T07:46:12;34.60;;;31.23;;
11514;SDS011;5814;41.936;25.556;2023-02-28T07:48:38;36.27;;;32.57;;
11514;SDS011;5814;41.936;25.556;2023-02-28T07:51:05;40.13;;;36.07;;
11514;SDS011;5814;41.936;25.556;2023-02-28T07:53:33;43.83;;;33.70;;
11514;SDS011;5814;41.936;25.556;2023-02-28T07:56:00;34.87;;;31.23;;
11514;SDS011;5814;41.936;25.556;2023-02-28T07:58:28;36.63;;;32.80;;
11514;SDS011;5814;41.936;25.556;2023-02-28T08:00:54;34.97;;;31.10;;
11514;SDS011;5814;41.936;25.556;2023-02-28T08:03:22;37.27;;;31.83;;
11514;SDS011;5814;41.936;25.556;2023-02-28T08:05:49;37.90;;;34.10;;
11514;SDS011;5814;41.936;25.556;2023-02-28T08:08:17;42.93;;;34.40;;
11514;SDS011;5814;41.936;25.556;2023-02-28T08:10:45;37.73;;;34.00;;
11514;SDS011;5814;41.936;25.556;2023-02-28T08:13:12;38.77;;;33.67;;
11514;SDS011;5814;41.936;25.556;2023-02-28T08:15:40;36.53;;;32.43;;
11514;SDS011;5814;41.936;25.556;2023-02-28T08:18:08;44.10;;;33.47;;
11514;SDS011;5814;41.936;25.556;2023-02-28T08:20:35;39.97;;;32.73;;
11514;SDS011;5814;41.936;25.556;2023-02-28T08:23:02;37.90;;;33.57;;
11514;SDS011;5814;41.936;25.556;2023-02-28T08:25:29;36.50;;;32.47;;
11514;SDS011;5814;41.936;25.556;2023-02-28T08:27:56;38.53;;;32.73;;
11514;SDS011;5814;41.936;25.556;2023-02-28T08:30:23;36.33;;;30.20;;
11514;SDS011;5814;41.936;25.556;2023-02-28T08:32:51;40.47;;;34.67;;
11514;SDS011;5814;41.936;25.556;2023-02-28T08:35:18;44.67;;;38.70;;
11514;SDS011;5814;41.936;25.556;2023-02-28T08:37:47;45.30;;;38.43;;
11514;SDS011;5814;41.936;25.556;2023-02-28T08:40:12;42.17;;;37.60;;
11514;SDS011;5814;41.936;25.556;2023-02-28T08:42:40;45.20;;;37.07;;
11514;SDS011;5814;41.936;25.556;2023-02-28T08:45:07;46.80;;;41.80;;
11514;SDS011;5814;41.936;25.556;2023-02-28T08:47:35;71.93;;;51.07;;
11514;SDS011;5814;41.936;25.556;2023-02-28T08:50:02;73.10;;;54.93;;
11514;SDS011;5814;41.936;25.556;2023-02-28T08:52:29;90.60;;;62.67;;
11514;SDS011;5814;41.936;25.556;2023-02-28T08:54:57;98.97;;;63.80;;
11514;SDS011;5814;41.936;25.556;2023-02-28T08:57:24;107.87;;;66.87;;
11514;SDS011;5814;41.936;25.556;2023-02-28T08:59:51;105.23;;;65.23;;
11514;SDS011;5814;41.936;25.556;2023-02-28T09:02:18;98.67;;;64.53;;
11514;SDS011;5814;41.936;25.556;2023-02-28T09:04:45;86.57;;;55.50;;
11514;SDS011;5814;41.936;25.556;2023-02-28T09:07:12;78.23;;;56.73;;
11514;SDS011;5814;41.936;25.556;2023-02-28T09:09:40;76.43;;;52.23;;
11514;SDS011;5814;41.936;25.556;2023-02-28T09:12:07;83.07;;;56.73;;
11514;SDS011;5814;41.936;25.556;2023-02-28T09:14:34;107.50;;;62.80;;
11514;SDS011;5814;41.936;25.556;2023-02-28T09:17:01;96.00;;;59.13;;
11514;SDS011;5814;41.936;25.556;2023-02-28T09:19:28;96.10;;;59.23;;
11514;SDS011;5814;41.936;25.556;2023-02-28T09:21:56;87.20;;;55.43;;
11514;SDS011;5814;41.936;25.556;2023-02-28T09:24:23;98.27;;;58.53;;
11514;SDS011;5814;41.936;25.556;2023-02-28T09:26:50;109.97;;;67.93;;
11514;SDS011;5814;41.936;25.556;2023-02-28T09:29:17;105.73;;;67.57;;
11514;SDS011;5814;41.936;25.556;2023-02-28T09:31:44;92.00;;;62.20;;
11514;SDS011;5814;41.936;25.556;2023-02-28T09:34:11;95.73;;;62.97;;
11514;SDS011;5814;41.936;25.556;2023-02-28T09:36:39;92.13;;;63.87;;
11514;SDS011;5814;41.936;25.556;2023-02-28T09:39:06;75.27;;;50.93;;
11514;SDS011;5814;41.936;25.556;2023-02-28T09:41:37;81.67;;;53.63;;
11514;SDS011;5814;41.936;25.556;2023-02-28T09:44:03;54.03;;;42.47;;
11514;SDS011;5814;41.936;25.556;2023-02-28T09:46:32;44.57;;;38.07;;
11514;SDS011;5814;41.936;25.556;2023-02-28T09:49:02;42.23;;;36.97;;
11514;SDS011;5814;41.936;25.556;2023-02-28T09:51:32;35.67;;;31.37;;
11514;SDS011;5814;41.936;25.556;2023-02-28T09:53:56;27.97;;;25.20;;
11514;SDS011;5814;41.936;25.556;2023-02-28T09:56:25;28.17;;;25.50;;
11514;SDS011;5814;41.936;25.556;2023-02-28T09:58:53;28.13;;;25.33;;
11514;SDS011;5814;41.936;25.556;2023-02-28T10:01:24;25.53;;;23.10;;
11514;SDS011;5814;41.936;25.556;2023-02-28T10:03:56;26.23;;;23.57;;
11514;SDS011;5814;41.936;25.556;2023-02-28T10:06:28;27.53;;;25.03;;
11514;SDS011;5814;41.936;25.556;2023-02-28T10:09:14;28.00;;;25.27;;
11514;SDS011;5814;41.936;25.556;2023-02-28T10:11:40;28.43;;;25.83;;
11514;SDS011;5814;41.936;25.556;2023-02-28T10:14:19;26.57;;;23.97;;
11514;SDS011;5814;41.936;25.556;2023-02-28T10:16:51;26.00;;;23.70;;
11514;SDS011;5814;41.936;25.556;2023-02-28T10:19:25;27.60;;;25.23;;
11514;SDS011;5814;41.936;25.556;2023-02-28T10:21:55;25.63;;;23.33;;
11514;SDS011;5814;41.936;25.556;2023-02-28T10:24:29;25.27;;;22.90;;
11514;SDS011;5814;41.936;25.556;2023-02-28T10:26:59;25.67;;;23.57;;
11514;SDS011;5814;41.936;25.556;2023-02-28T10:29:23;25.90;;;23.50;;
11514;SDS011;5814;41.936;25.556;2023-02-28T10:31:50;25.77;;;23.63;;
11514;SDS011;5814;41.936;25.556;2023-02-28T10:34:17;25.57;;;22.37;;
11514;SDS011;5814;41.936;25.556;2023-02-28T10:36:45;24.13;;;21.93;;
11514;SDS011;5814;41.936;25.556;2023-02-28T10:41:51;23.20;;;21.27;;
11514;SDS011;5814;41.936;25.556;2023-02-28T10:44:21;24.07;;;21.67;;
11514;SDS011;5814;41.936;25.556;2023-02-28T10:46:48;22.07;;;20.07;;
11514;SDS011;5814;41.936;25.556;2023-02-28T10:49:31;23.23;;;21.10;;
11514;SDS011;5814;41.936;25.556;2023-02-28T10:51:59;21.40;;;19.30;;
11514;SDS011;5814;41.936;25.556;2023-02-28T10:54:34;20.57;;;18.87;;
11514;SDS011;5814;41.936;25.556;2023-02-28T10:57:07;21.40;;;19.50;;
11514;SDS011;5814;41.936;25.556;2023-02-28T10:59:35;20.60;;;18.70;;
11514;SDS011;5814;41.936;25.556;2023-02-28T11:02:07;19.60;;;18.00;;
11514;SDS011;5814;41.936;25.556;2023-02-28T11:04:34;19.33;;;17.80;;
11514;SDS011;5814;41.936;25.556;2023-02-28T11:07:01;18.73;;;17.23;;
11514;SDS011;5814;41.936;25.556;2023-02-28T11:09:31;18.63;;;17.07;;
11514;SDS011;5814;41.936;25.556;2023-02-28T11:11:57;20.23;;;18.43;;
11514;SDS011;5814;41.936;25.556;2023-02-28T11:14:25;18.27;;;16.77;;
11514;SDS011;5814;41.936;25.556;2023-02-28T11:16:52;18.05;;;16.35;;
11514;SDS011;5814;41.936;25.556;2023-02-28T11:19:20;18.47;;;17.00;;
11514;SDS011;5814;41.936;25.556;2023-02-28T11:21:51;18.60;;;16.63;;
11514;SDS011;5814;41.936;25.556;2023-02-28T11:24:33;19.17;;;17.27;;
11514;SDS011;5814;41.936;25.556;2023-02-28T11:27:00;21.90;;;19.50;;
11514;SDS011;5814;41.936;25.556;2023-02-28T11:29:29;21.10;;;18.97;;
11514;SDS011;5814;41.936;25.556;2023-02-28T11:32:01;22.07;;;19.40;;
11514;SDS011;5814;41.936;25.556;2023-02-28T11:34:30;18.57;;;16.80;;
11514;SDS011;5814;41.936;25.556;2023-02-28T11:36:58;19.00;;;17.43;;
11514;SDS011;5814;41.936;25.556;2023-02-28T11:39:25;18.60;;;16.73;;
11514;SDS011;5814;41.936;25.556;2023-02-28T11:42:03;19.00;;;17.07;;
11514;SDS011;5814;41.936;25.556;2023-02-28T11:44:56;19.20;;;17.30;;
11514;SDS011;5814;41.936;25.556;2023-02-28T11:47:42;20.60;;;18.80;;
11514;SDS011;5814;41.936;25.556;2023-02-28T11:50:23;20.73;;;19.07;;
11514;SDS011;5814;41.936;25.556;2023-02-28T11:53:10;20.43;;;18.60;;
11514;SDS011;5814;41.936;25.556;2023-02-28T11:55:52;22.97;;;20.77;;
11514;SDS011;5814;41.936;25.556;2023-02-28T11:58:29;23.47;;;21.50;;
11514;SDS011;5814;41.936;25.556;2023-02-28T12:01:17;26.17;;;23.57;;
11514;SDS011;5814;41.936;25.556;2023-02-28T12:06:25;26.93;;;24.60;;
11514;SDS011;5814;41.936;25.556;2023-02-28T12:09:02;26.27;;;23.90;;
11514;SDS011;5814;41.936;25.556;2023-02-28T12:11:35;28.87;;;26.40;;
11514;SDS011;5814;41.936;25.556;2023-02-28T12:17:13;29.00;;;26.27;;
11514;SDS011;5814;41.936;25.556;2023-02-28T12:19:48;29.93;;;27.10;;
11514;SDS011;5814;41.936;25.556;2023-02-28T12:22:22;34.37;;;30.93;;
11514;SDS011;5814;41.936;25.556;2023-02-28T12:25:18;33.87;;;30.57;;
11514;SDS011;5814;41.936;25.556;2023-02-28T12:27:47;31.30;;;28.47;;
11514;SDS011;5814;41.936;25.556;2023-02-28T12:30:16;31.10;;;28.07;;
11514;SDS011;5814;41.936;25.556;2023-02-28T12:32:42;30.77;;;27.83;;
11514;SDS011;5814;41.936;25.556;2023-02-28T12:35:13;33.83;;;30.57;;
11514;SDS011;5814;41.936;25.556;2023-02-28T12:37:41;30.83;;;28.13;;
11514;SDS011;5814;41.936;25.556;2023-02-28T12:40:23;28.20;;;25.60;;
11514;SDS011;5814;41.936;25.556;2023-02-28T12:42:51;31.93;;;28.77;;
11514;SDS011;5814;41.936;25.556;2023-02-28T12:45:20;30.80;;;27.67;;
11514;SDS011;5814;41.936;25.556;2023-02-28T12:47:48;32.00;;;28.87;;
11514;SDS011;5814;41.936;25.556;2023-02-28T12:50:14;27.53;;;25.07;;
11514;SDS011;5814;41.936;25.556;2023-02-28T12:52:47;27.17;;;24.57;;
11514;SDS011;5814;41.936;25.556;2023-02-28T12:55:31;27.13;;;24.63;;
11514;SDS011;5814;41.936;25.556;2023-02-28T12:58:01;27.80;;;25.50;;
11514;SDS011;5814;41.936;25.556;2023-02-28T13:00:32;27.97;;;25.47;;
11514;SDS011;5814;41.936;25.556;2023-02-28T13:03:33;27.27;;;24.87;;
11514;SDS011;5814;41.936;25.556;2023-02-28T13:08:57;29.33;;;26.63;;
11514;SDS011;5814;41.936;25.556;2023-02-28T13:11:33;28.20;;;25.50;;
11514;SDS011;5814;41.936;25.556;2023-02-28T13:14:01;33.13;;;29.70;;
11514;SDS011;5814;41.936;25.556;2023-02-28T13:16:27;30.53;;;27.73;;
11514;SDS011;5814;41.936;25.556;2023-02-28T13:19:07;27.20;;;24.83;;
11514;SDS011;5814;41.936;25.556;2023-02-28T13:21:22;32.40;;;29.20;;
11514;SDS011;5814;41.936;25.556;2023-02-28T13:23:59;27.37;;;24.80;;
11514;SDS011;5814;41.936;25.556;2023-02-28T13:27:10;33.40;;;30.00;;
11514;SDS011;5814;41.936;25.556;2023-02-28T13:29:04;26.97;;;24.33;;
11514;SDS011;5814;41.936;25.556;2023-02-28T13:34:24;31.87;;;28.57;;
11514;SDS011;5814;41.936;25.556;2023-02-28T13:36:51;30.53;;;27.67;;
11514;SDS011;5814;41.936;25.556;2023-02-28T13:47:44;32.80;;;29.70;;
11514;SDS011;5814;41.936;25.556;2023-02-28T13:53:06;32.00;;;28.80;;
11514;SDS011;5814;41.936;25.556;2023-02-28T13:55:49;32.70;;;29.60;;
11514;SDS011;5814;41.936;25.556;2023-02-28T13:58:35;32.97;;;30.00;;
11514;SDS011;5814;41.936;25.556;2023-02-28T14:01:18;33.27;;;30.03;;
11514;SDS011;5814;41.936;25.556;2023-02-28T14:04:14;33.53;;;30.27;;
11514;SDS011;5814;41.936;25.556;2023-02-28T14:06:48;34.77;;;31.20;;
11514;SDS011;5814;41.936;25.556;2023-02-28T14:09:19;35.50;;;32.00;;
11514;SDS011;5814;41.936;25.556;2023-02-28T14:11:44;36.80;;;33.23;;
11514;SDS011;5814;41.936;25.556;2023-02-28T14:16:50;44.70;;;40.33;;
11514;SDS011;5814;41.936;25.556;2023-02-28T14:19:22;36.07;;;32.73;;
11514;SDS011;5814;41.936;25.556;2023-02-28T14:24:47;39.73;;;35.73;;
11514;SDS011;5814;41.936;25.556;2023-02-28T14:32:53;37.00;;;33.13;;
11514;SDS011;5814;41.936;25.556;2023-02-28T14:35:35;39.13;;;35.13;;
11514;SDS011;5814;41.936;25.556;2023-02-28T14:38:04;37.20;;;33.53;;
11514;SDS011;5814;41.936;25.556;2023-02-28T14:40:32;40.90;;;36.50;;
11514;SDS011;5814;41.936;25.556;2023-02-28T14:42:59;42.03;;;37.60;;
11514;SDS011;5814;41.936;25.556;2023-02-28T14:45:29;38.27;;;33.00;;
11514;SDS011;5814;41.936;25.556;2023-02-28T14:47:57;37.00;;;33.07;;
11514;SDS011;5814;41.936;25.556;2023-02-28T14:50:26;36.93;;;33.33;;
11514;SDS011;5814;41.936;25.556;2023-02-28T14:52:54;39.20;;;34.57;;
11514;SDS011;5814;41.936;25.556;2023-02-28T14:55:24;40.03;;;35.43;;
11514;SDS011;5814;41.936;25.556;2023-02-28T14:57:52;36.23;;;32.57;;
11514;SDS011;5814;41.936;25.556;2023-02-28T15:00:24;36.63;;;32.63;;
11514;SDS011;5814;41.936;25.556;2023-02-28T15:02:50;38.67;;;34.50;;
11514;SDS011;5814;41.936;25.556;2023-02-28T15:05:22;39.17;;;35.17;;
11514;SDS011;5814;41.936;25.556;2023-02-28T15:07:48;36.93;;;32.70;;
11514;SDS011;5814;41.936;25.556;2023-02-28T15:10:18;37.73;;;33.63;;
11514;SDS011;5814;41.936;25.556;2023-02-28T15:12:47;41.10;;;36.80;;
11514;SDS011;5814;41.936;25.556;2023-02-28T15:15:25;39.90;;;35.70;;
11514;SDS011;5814;41.936;25.556;2023-02-28T15:17:52;38.57;;;34.47;;